createdAt,value
2019-02-19T00:00:50.668Z,992.31
2019-02-19T00:01:50.837Z,992.28
2019-02-19T00:02:51.004Z,992.27
2019-02-19T00:03:51.176Z,992.24
2019-02-19T00:04:51.351Z,992.22
2019-02-19T00:05:51.518Z,992.20
2019-02-19T00:06:51.685Z,992.20
2019-02-19T00:07:51.851Z,992.23
2019-02-19T00:08:52.034Z,992.22
2019-02-19T00:09:52.202Z,992.24
2019-02-19T00:10:52.374Z,992.25
2019-02-19T00:11:52.545Z,992.23
2019-02-19T00:12:52.719Z,992.23
2019-02-19T00:13:52.895Z,992.22
2019-02-19T00:14:53.058Z,992.25
2019-02-19T00:15:53.222Z,992.28
2019-02-19T00:16:53.398Z,992.26
2019-02-19T00:17:53.570Z,992.24
2019-02-19T00:18:53.747Z,992.26
2019-02-19T00:19:53.909Z,992.24
2019-02-19T00:20:54.090Z,992.27
2019-02-19T00:21:54.246Z,992.28
2019-02-19T00:22:54.421Z,992.29
2019-02-19T00:23:54.582Z,992.28
2019-02-19T00:24:54.751Z,992.32
2019-02-19T00:25:54.921Z,992.29
2019-02-19T00:26:55.098Z,992.29
2019-02-19T00:27:55.288Z,992.34
2019-02-19T00:28:55.441Z,992.32
2019-02-19T00:29:55.615Z,992.30
2019-02-19T00:30:55.777Z,992.32
2019-02-19T00:31:55.955Z,992.29
2019-02-19T00:32:56.117Z,992.31
2019-02-19T00:33:56.280Z,992.31
2019-02-19T00:34:56.449Z,992.29
2019-02-19T00:35:56.621Z,992.31
2019-02-19T00:36:56.786Z,992.25
2019-02-19T00:37:56.959Z,992.30
2019-02-19T00:38:57.162Z,992.27
2019-02-19T00:39:57.300Z,992.29
2019-02-19T00:40:57.475Z,992.30
2019-02-19T00:41:57.647Z,992.33
2019-02-19T00:42:57.812Z,992.29
2019-02-19T00:43:57.991Z,992.31
2019-02-19T00:44:58.161Z,992.30
2019-02-19T00:45:58.344Z,992.32
2019-02-19T00:46:58.499Z,992.29
2019-02-19T00:47:58.673Z,992.34
2019-02-19T00:48:58.848Z,992.32
2019-02-19T00:49:59.012Z,992.34
2019-02-19T00:50:59.190Z,992.41
2019-02-19T00:51:59.349Z,992.40
2019-02-19T00:52:59.530Z,992.38
2019-02-19T00:53:59.706Z,992.39
2019-02-19T00:54:59.866Z,992.43
2019-02-19T00:56:00.049Z,992.40
2019-02-19T00:57:00.206Z,992.38
2019-02-19T00:58:00.387Z,992.39
2019-02-19T00:59:00.550Z,992.46
2019-02-19T01:00:00.719Z,992.43
2019-02-19T01:01:00.903Z,992.44
2019-02-19T01:02:01.053Z,992.37
2019-02-19T01:03:01.232Z,992.42
2019-02-19T01:04:01.402Z,992.40
2019-02-19T01:05:01.572Z,992.41
2019-02-19T01:06:01.745Z,992.38
2019-02-19T01:07:01.914Z,992.37
2019-02-19T01:08:02.092Z,992.32
2019-02-19T01:09:02.270Z,992.33
2019-02-19T01:10:02.430Z,992.37
2019-02-19T01:11:02.595Z,992.33
2019-02-19T01:12:02.763Z,992.32
2019-02-19T01:13:02.986Z,992.34
2019-02-19T01:14:03.104Z,992.38
2019-02-19T01:15:03.278Z,992.31
2019-02-19T01:16:03.449Z,992.28
2019-02-19T01:17:03.616Z,992.29
2019-02-19T01:18:03.791Z,992.24
2019-02-19T01:19:03.962Z,992.29
2019-02-19T01:20:04.132Z,992.27
2019-02-19T01:21:04.303Z,992.32
2019-02-19T01:22:04.474Z,992.27
2019-02-19T01:23:04.649Z,992.26
2019-02-19T01:24:04.809Z,992.25
2019-02-19T01:25:04.987Z,992.27
2019-02-19T01:26:05.157Z,992.30
2019-02-19T01:27:05.314Z,992.28
2019-02-19T01:28:05.487Z,992.29
2019-02-19T01:29:05.660Z,992.26
2019-02-19T01:30:05.827Z,992.26
2019-02-19T01:31:06.007Z,992.24
2019-02-19T01:32:06.158Z,992.28
2019-02-19T01:33:06.328Z,992.29
2019-02-19T01:34:06.524Z,992.27
2019-02-19T01:35:06.674Z,992.25
2019-02-19T01:36:06.846Z,992.27
2019-02-19T01:37:07.017Z,992.27
2019-02-19T01:38:07.187Z,992.25
2019-02-19T01:39:07.373Z,992.31
2019-02-19T01:40:07.534Z,992.28
2019-02-19T01:41:07.703Z,992.31
2019-02-19T01:42:07.873Z,992.32
2019-02-19T01:43:08.049Z,992.30
2019-02-19T01:44:08.215Z,992.30
2019-02-19T01:45:08.383Z,992.29
2019-02-19T01:46:09.368Z,992.32
2019-02-19T01:47:08.730Z,992.34
2019-02-19T01:48:08.890Z,992.38
2019-02-19T01:49:09.070Z,992.31
2019-02-19T01:50:09.231Z,992.38
2019-02-19T01:51:09.401Z,992.36
2019-02-19T01:52:09.575Z,992.35
2019-02-19T01:53:09.745Z,992.33
2019-02-19T01:54:09.916Z,992.32
2019-02-19T01:55:10.090Z,992.26
2019-02-19T01:56:10.258Z,992.27
2019-02-19T01:57:10.428Z,992.24
2019-02-19T01:58:10.600Z,992.23
2019-02-19T01:59:10.773Z,992.22
2019-02-19T02:00:10.945Z,992.28
2019-02-19T02:01:11.114Z,992.23
2019-02-19T02:02:11.281Z,992.26
2019-02-19T02:03:11.445Z,992.21
2019-02-19T02:04:11.632Z,992.23
2019-02-19T02:05:11.790Z,992.25
2019-02-19T02:06:11.957Z,992.23
2019-02-19T02:07:12.132Z,992.20
2019-02-19T02:08:12.300Z,992.22
2019-02-19T02:09:12.510Z,992.25
2019-02-19T02:10:12.645Z,992.22
2019-02-19T02:11:12.821Z,992.24
2019-02-19T02:12:12.992Z,992.20
2019-02-19T02:13:13.157Z,992.24
2019-02-19T02:14:13.335Z,992.25
2019-02-19T02:15:13.499Z,992.23
2019-02-19T02:16:13.667Z,992.22
2019-02-19T02:17:13.840Z,992.18
2019-02-19T02:18:14.009Z,992.24
2019-02-19T02:19:14.182Z,992.20
2019-02-19T02:20:14.352Z,992.16
2019-02-19T02:21:14.527Z,992.19
2019-02-19T02:22:14.694Z,992.16
2019-02-19T02:23:14.865Z,992.12
2019-02-19T02:24:15.034Z,992.13
2019-02-19T02:25:15.210Z,992.17
2019-02-19T02:26:15.376Z,992.10
2019-02-19T02:27:15.546Z,992.06
2019-02-19T02:28:15.721Z,992.05
2019-02-19T02:29:15.891Z,992.08
2019-02-19T02:30:16.060Z,992.09
2019-02-19T02:31:16.222Z,992.09
2019-02-19T02:32:16.402Z,992.13
2019-02-19T02:33:16.571Z,992.12
2019-02-19T02:34:16.741Z,992.13
2019-02-19T02:35:16.925Z,992.10
2019-02-19T02:36:17.098Z,992.12
2019-02-19T02:37:17.253Z,992.10
2019-02-19T02:38:17.425Z,992.09
2019-02-19T02:39:17.601Z,992.13
2019-02-19T02:40:17.766Z,992.14
2019-02-19T02:41:17.938Z,992.10
2019-02-19T02:42:18.109Z,992.14
2019-02-19T02:43:18.288Z,992.11
2019-02-19T02:44:18.457Z,992.13
2019-02-19T02:45:18.633Z,992.12
2019-02-19T02:46:18.793Z,992.10
2019-02-19T02:47:18.955Z,992.11
2019-02-19T02:48:19.120Z,992.12
2019-02-19T02:49:19.312Z,992.06
2019-02-19T02:50:19.471Z,992.06
2019-02-19T02:51:19.644Z,992.09
2019-02-19T02:52:19.796Z,992.12
2019-02-19T02:53:19.975Z,992.08
2019-02-19T02:54:20.137Z,992.09
2019-02-19T02:55:20.313Z,992.09
2019-02-19T02:56:20.478Z,992.07
2019-02-19T02:57:20.647Z,992.07
2019-02-19T02:58:20.830Z,992.08
2019-02-19T02:59:20.997Z,992.10
2019-02-19T03:00:21.163Z,992.08
2019-02-19T03:01:21.335Z,992.10
2019-02-19T03:02:21.517Z,992.07
2019-02-19T03:03:21.673Z,992.07
2019-02-19T03:04:21.848Z,992.09
2019-02-19T03:05:22.024Z,992.11
2019-02-19T03:06:22.188Z,992.10
2019-02-19T03:07:22.357Z,992.11
2019-02-19T03:08:22.543Z,992.06
2019-02-19T03:09:22.701Z,992.06
2019-02-19T03:10:22.876Z,992.04
2019-02-19T03:11:23.040Z,992.04
2019-02-19T03:12:23.212Z,992.01
2019-02-19T03:13:23.380Z,991.97
2019-02-19T03:14:23.551Z,992.03
2019-02-19T03:15:23.725Z,991.97
2019-02-19T03:16:23.893Z,992.02
2019-02-19T03:17:24.065Z,991.96
2019-02-19T03:18:24.234Z,992.01
2019-02-19T03:19:24.406Z,991.99
2019-02-19T03:20:24.573Z,992.00
2019-02-19T03:21:24.744Z,991.99
2019-02-19T03:22:24.913Z,991.96
2019-02-19T03:23:25.074Z,991.97
2019-02-19T03:24:25.256Z,991.96
2019-02-19T03:25:25.422Z,991.94
2019-02-19T03:26:25.593Z,991.98
2019-02-19T03:27:25.764Z,991.98
2019-02-19T03:28:25.944Z,991.97
2019-02-19T03:29:26.104Z,991.99
2019-02-19T03:30:26.277Z,991.99
2019-02-19T03:31:26.447Z,992.01
2019-02-19T03:32:26.625Z,992.00
2019-02-19T03:33:26.788Z,991.99
2019-02-19T03:34:26.948Z,992.05
2019-02-19T03:35:27.127Z,992.06
2019-02-19T03:36:27.286Z,992.07
2019-02-19T03:37:27.468Z,992.08
2019-02-19T03:38:27.623Z,992.07
2019-02-19T03:39:27.809Z,992.09
2019-02-19T03:40:27.982Z,992.05
2019-02-19T03:41:28.151Z,992.11
2019-02-19T03:42:28.322Z,992.10
2019-02-19T03:43:28.491Z,992.07
2019-02-19T03:44:28.656Z,992.05
2019-02-19T03:45:28.827Z,992.02
2019-02-19T03:46:30.392Z,992.05
2019-02-19T03:47:29.168Z,992.01
2019-02-19T03:48:29.342Z,992.03
2019-02-19T03:49:29.512Z,992.05
2019-02-19T03:50:29.679Z,992.02
2019-02-19T03:51:29.857Z,992.01
2019-02-19T03:52:30.018Z,992.05
2019-02-19T03:53:30.190Z,991.98
2019-02-19T03:54:30.376Z,991.99
2019-02-19T03:55:30.549Z,991.96
2019-02-19T03:56:30.696Z,991.90
2019-02-19T03:57:30.867Z,991.90
2019-02-19T03:58:31.034Z,991.96
2019-02-19T03:59:31.209Z,991.97
2019-02-19T04:00:31.375Z,991.93
2019-02-19T04:01:31.544Z,991.93
2019-02-19T04:02:31.721Z,991.97
2019-02-19T04:03:31.888Z,991.94
2019-02-19T04:04:32.062Z,991.94
2019-02-19T04:05:32.227Z,991.98
2019-02-19T04:06:32.515Z,991.99
2019-02-19T04:07:32.568Z,991.93
2019-02-19T04:08:32.740Z,991.96
2019-02-19T04:09:32.905Z,991.99
2019-02-19T04:10:33.081Z,991.95
2019-02-19T04:11:33.253Z,991.94
2019-02-19T04:12:33.405Z,991.94
2019-02-19T04:13:33.571Z,991.98
2019-02-19T04:14:33.751Z,991.94
2019-02-19T04:15:33.921Z,991.96
2019-02-19T04:16:34.088Z,991.96
2019-02-19T04:17:34.251Z,991.99
2019-02-19T04:18:34.420Z,992.01
2019-02-19T04:19:34.603Z,991.96
2019-02-19T04:20:34.758Z,991.99
2019-02-19T04:21:34.934Z,991.99
2019-02-19T04:22:35.103Z,992.06
2019-02-19T04:23:35.282Z,992.01
2019-02-19T04:24:35.451Z,992.03
2019-02-19T04:25:35.610Z,992.03
2019-02-19T04:26:35.784Z,992.03
2019-02-19T04:27:35.948Z,991.99
2019-02-19T04:28:36.119Z,992.02
2019-02-19T04:29:36.283Z,992.01
2019-02-19T04:30:36.460Z,991.99
2019-02-19T04:31:36.632Z,991.98
2019-02-19T04:32:36.789Z,992.01
2019-02-19T04:33:36.956Z,991.96
2019-02-19T04:34:37.109Z,992.01
2019-02-19T04:35:37.279Z,991.98
2019-02-19T04:36:37.452Z,992.00
2019-02-19T04:37:37.616Z,991.97
2019-02-19T04:38:37.820Z,992.00
2019-02-19T04:39:37.966Z,992.05
2019-02-19T04:40:38.143Z,992.00
2019-02-19T04:41:38.318Z,992.02
2019-02-19T04:42:38.490Z,992.05
2019-02-19T04:43:38.651Z,992.12
2019-02-19T04:44:38.824Z,992.07
2019-02-19T04:45:39.006Z,992.09
2019-02-19T04:46:39.158Z,992.06
2019-02-19T04:47:39.328Z,992.07
2019-02-19T04:48:39.515Z,992.02
2019-02-19T04:49:39.659Z,992.08
2019-02-19T04:50:39.833Z,992.04
2019-02-19T04:51:40.004Z,992.01
2019-02-19T04:52:40.178Z,992.05
2019-02-19T04:53:40.350Z,992.06
2019-02-19T04:54:40.529Z,992.08
2019-02-19T04:55:40.695Z,992.12
2019-02-19T04:56:40.870Z,992.07
2019-02-19T04:57:41.055Z,992.06
2019-02-19T04:58:41.208Z,992.11
2019-02-19T04:59:41.387Z,992.16
2019-02-19T05:00:41.549Z,992.16
2019-02-19T05:01:41.719Z,992.15
2019-02-19T05:02:41.885Z,992.14
2019-02-19T05:03:42.063Z,992.18
2019-02-19T05:04:42.233Z,992.17
2019-02-19T05:05:42.402Z,992.08
2019-02-19T05:06:42.572Z,992.09
2019-02-19T05:07:42.765Z,992.00
2019-02-19T05:08:44.562Z,991.98
2019-02-19T05:09:43.083Z,991.98
2019-02-19T05:10:43.254Z,991.99
2019-02-19T05:11:43.432Z,992.00
2019-02-19T05:12:43.616Z,992.02
2019-02-19T05:13:43.765Z,992.04
2019-02-19T05:14:43.937Z,992.09
2019-02-19T05:15:44.106Z,992.11
2019-02-19T05:16:44.279Z,992.12
2019-02-19T05:17:44.449Z,992.14
2019-02-19T05:18:44.616Z,992.11
2019-02-19T05:19:44.787Z,992.13
2019-02-19T05:20:44.958Z,992.17
2019-02-19T05:21:45.132Z,992.17
2019-02-19T05:22:45.301Z,992.22
2019-02-19T05:23:45.472Z,992.22
2019-02-19T05:24:45.640Z,992.24
2019-02-19T05:25:45.814Z,992.16
2019-02-19T05:26:45.981Z,992.19
2019-02-19T05:27:46.156Z,992.21
2019-02-19T05:28:46.316Z,992.21
2019-02-19T05:29:46.486Z,992.21
2019-02-19T05:30:46.663Z,992.18
2019-02-19T05:31:46.839Z,992.20
2019-02-19T05:32:47.015Z,992.20
2019-02-19T05:33:47.191Z,992.16
2019-02-19T05:34:47.333Z,992.18
2019-02-19T05:35:47.513Z,992.20
2019-02-19T05:36:47.670Z,992.25
2019-02-19T05:37:47.849Z,992.23
2019-02-19T05:38:48.016Z,992.27
2019-02-19T05:39:48.189Z,992.26
2019-02-19T05:40:48.356Z,992.29
2019-02-19T05:41:48.512Z,992.22
2019-02-19T05:42:48.690Z,992.29
2019-02-19T05:43:48.859Z,992.27
2019-02-19T05:44:49.043Z,992.30
2019-02-19T05:45:49.196Z,992.28
2019-02-19T05:46:50.220Z,992.30
2019-02-19T05:47:49.539Z,992.31
2019-02-19T05:48:49.700Z,992.29
2019-02-19T05:49:49.886Z,992.32
2019-02-19T05:50:50.054Z,992.32
2019-02-19T05:51:50.228Z,992.34
2019-02-19T05:52:50.396Z,992.29
2019-02-19T05:53:50.566Z,992.29
2019-02-19T05:54:50.745Z,992.30
2019-02-19T05:55:50.910Z,992.29
2019-02-19T05:56:51.086Z,992.29
2019-02-19T05:57:51.246Z,992.31
2019-02-19T05:58:51.419Z,992.35
2019-02-19T05:59:51.591Z,992.43
2019-02-19T06:00:51.764Z,992.42
2019-02-19T06:01:51.934Z,992.42
2019-02-19T06:02:52.107Z,992.44
2019-02-19T06:03:52.284Z,992.48
2019-02-19T06:04:52.455Z,992.45
2019-02-19T06:05:52.620Z,992.47
2019-02-19T06:06:52.789Z,992.43
2019-02-19T06:07:52.970Z,992.39
2019-02-19T06:08:53.145Z,992.36
2019-02-19T06:09:53.304Z,992.40
2019-02-19T06:10:53.474Z,992.43
2019-02-19T06:11:53.645Z,992.38
2019-02-19T06:12:53.831Z,992.42
2019-02-19T06:13:54.002Z,992.45
2019-02-19T06:14:54.183Z,992.48
2019-02-19T06:15:54.346Z,992.45
2019-02-19T06:16:58.578Z,992.54
2019-02-19T06:17:54.698Z,992.52
2019-02-19T06:18:54.864Z,992.47
2019-02-19T06:19:55.036Z,992.44
2019-02-19T06:20:55.208Z,992.46
2019-02-19T06:21:55.379Z,992.46
2019-02-19T06:22:55.545Z,992.47
2019-02-19T06:23:55.720Z,992.44
2019-02-19T06:24:55.920Z,992.46
2019-02-19T06:25:56.057Z,992.51
2019-02-19T06:26:56.223Z,992.64
2019-02-19T06:27:56.407Z,992.68
2019-02-19T06:28:57.848Z,992.64
2019-02-19T06:29:56.738Z,992.60
2019-02-19T06:30:56.912Z,992.60
2019-02-19T06:31:57.082Z,992.59
2019-02-19T06:32:57.255Z,992.73
2019-02-19T06:33:57.420Z,992.67
2019-02-19T06:34:57.591Z,992.68
2019-02-19T06:35:57.765Z,992.71
2019-02-19T06:36:57.947Z,992.67
2019-02-19T06:37:58.103Z,992.67
2019-02-19T06:38:58.277Z,992.63
2019-02-19T06:39:58.445Z,992.63
2019-02-19T06:40:58.626Z,992.66
2019-02-19T06:41:58.781Z,992.68
2019-02-19T06:42:58.960Z,992.66
2019-02-19T06:43:59.119Z,992.71
2019-02-19T06:44:59.289Z,992.74
2019-02-19T06:45:59.488Z,992.75
2019-02-19T06:47:06.711Z,992.80
2019-02-19T06:47:59.800Z,992.84
2019-02-19T06:48:59.972Z,992.88
2019-02-19T06:50:00.318Z,992.83
2019-02-19T06:51:00.315Z,992.83
2019-02-19T06:52:00.489Z,992.83
2019-02-19T06:53:00.656Z,992.84
2019-02-19T06:54:00.824Z,992.84
2019-02-19T06:55:00.996Z,992.85
2019-02-19T06:56:01.164Z,992.88
2019-02-19T06:57:01.361Z,992.86
2019-02-19T06:58:01.510Z,992.85
2019-02-19T06:59:01.677Z,992.91
2019-02-19T07:00:01.849Z,992.91
2019-02-19T07:01:02.033Z,992.90
2019-02-19T07:02:02.198Z,992.95
2019-02-19T07:03:02.372Z,992.95
2019-02-19T07:04:02.542Z,992.96
2019-02-19T07:05:02.734Z,993.00
2019-02-19T07:06:02.925Z,992.99
2019-02-19T07:07:03.097Z,993.00
2019-02-19T07:08:03.262Z,992.97
2019-02-19T07:09:03.447Z,992.99
2019-02-19T07:10:03.604Z,993.03
2019-02-19T07:11:03.778Z,993.05
2019-02-19T07:12:03.946Z,993.08
2019-02-19T07:13:04.122Z,993.08
2019-02-19T07:14:04.289Z,993.09
2019-02-19T07:15:04.449Z,993.11
2019-02-19T07:16:04.627Z,993.16
2019-02-19T07:17:04.793Z,993.13
2019-02-19T07:18:04.969Z,993.18
2019-02-19T07:19:05.138Z,993.15
2019-02-19T07:20:05.313Z,993.17
2019-02-19T07:21:05.481Z,993.16
2019-02-19T07:22:05.651Z,993.14
2019-02-19T07:23:05.816Z,993.14
2019-02-19T07:24:05.988Z,993.17
2019-02-19T07:25:06.160Z,993.16
2019-02-19T07:26:06.336Z,993.13
2019-02-19T07:27:06.516Z,993.16
2019-02-19T07:28:06.679Z,993.16
2019-02-19T07:29:06.853Z,993.18
2019-02-19T07:30:07.016Z,993.09
2019-02-19T07:31:07.194Z,993.14
2019-02-19T07:32:07.368Z,993.14
2019-02-19T07:33:07.533Z,993.20
2019-02-19T07:34:07.708Z,993.22
2019-02-19T07:35:07.882Z,993.19
2019-02-19T07:36:08.059Z,993.15
2019-02-19T07:37:08.226Z,993.15
2019-02-19T07:38:08.396Z,993.21
2019-02-19T07:40:08.737Z,993.23
2019-02-19T07:41:08.922Z,993.29
2019-02-19T07:42:09.075Z,993.30
2019-02-19T07:43:09.247Z,993.31
2019-02-19T07:44:09.418Z,993.33
2019-02-19T07:45:09.610Z,993.35
2019-02-19T07:46:09.780Z,993.38
2019-02-19T07:47:09.950Z,993.43
2019-02-19T07:48:10.122Z,993.50
2019-02-19T07:49:10.301Z,993.50
2019-02-19T07:50:10.469Z,993.56
2019-02-19T07:51:10.638Z,993.49
2019-02-19T07:52:10.810Z,993.54
2019-02-19T07:53:10.987Z,993.54
2019-02-19T07:54:11.157Z,993.58
2019-02-19T07:55:11.336Z,993.55
2019-02-19T07:56:11.499Z,993.54
2019-02-19T07:57:11.685Z,993.54
2019-02-19T07:58:11.867Z,993.52
2019-02-19T07:59:12.018Z,993.50
2019-02-19T08:00:12.188Z,993.46
2019-02-19T08:01:12.378Z,993.54
2019-02-19T08:02:12.558Z,993.59
2019-02-19T08:03:12.741Z,993.62
2019-02-19T08:04:12.903Z,993.67
2019-02-19T08:05:13.061Z,993.68
2019-02-19T08:06:13.233Z,993.61
2019-02-19T08:07:13.405Z,993.56
2019-02-19T08:08:13.579Z,993.59
2019-02-19T08:09:13.743Z,993.62
2019-02-19T08:10:14.016Z,993.60
2019-02-19T08:11:14.086Z,993.65
2019-02-19T08:12:15.202Z,993.66
2019-02-19T08:13:14.775Z,993.63
2019-02-19T08:14:14.523Z,993.60
2019-02-19T08:15:14.733Z,993.61
2019-02-19T08:16:14.906Z,993.62
2019-02-19T08:17:15.074Z,993.63
2019-02-19T08:18:15.248Z,993.64
2019-02-19T08:19:15.418Z,993.62
2019-02-19T08:20:16.393Z,993.60
2019-02-19T08:21:15.762Z,993.62
2019-02-19T08:22:15.927Z,993.64
2019-02-19T08:23:16.206Z,993.70
2019-02-19T08:24:16.270Z,993.77
2019-02-19T08:25:16.449Z,993.76
2019-02-19T08:26:16.612Z,993.75
2019-02-19T08:27:16.787Z,993.80
2019-02-19T08:28:16.966Z,993.79
2019-02-19T08:29:17.133Z,993.80
2019-02-19T08:30:17.316Z,993.82
2019-02-19T08:31:17.466Z,993.81
2019-02-19T08:32:17.641Z,993.84
2019-02-19T08:33:17.808Z,993.82
2019-02-19T08:34:17.980Z,993.81
2019-02-19T08:35:18.166Z,993.81
2019-02-19T08:36:18.322Z,993.83
2019-02-19T08:37:18.492Z,993.86
2019-02-19T08:38:18.663Z,993.85
2019-02-19T08:39:18.832Z,993.85
2019-02-19T08:40:19.016Z,993.87
2019-02-19T08:41:19.181Z,993.83
2019-02-19T08:42:19.355Z,993.81
2019-02-19T08:43:19.518Z,993.76
2019-02-19T08:44:19.683Z,993.83
2019-02-19T08:45:19.857Z,993.80
2019-02-19T08:46:20.034Z,993.81
2019-02-19T08:47:20.206Z,993.85
2019-02-19T08:48:20.373Z,993.83
2019-02-19T08:49:20.545Z,993.86
2019-02-19T08:50:20.725Z,993.90
2019-02-19T08:51:20.898Z,993.91
2019-02-19T08:52:21.064Z,993.83
2019-02-19T08:53:21.231Z,993.81
2019-02-19T08:54:21.400Z,993.84
2019-02-19T08:55:21.569Z,993.85
2019-02-19T08:56:21.741Z,993.86
2019-02-19T08:57:21.921Z,993.89
2019-02-19T08:58:22.092Z,993.93
2019-02-19T08:59:22.256Z,993.98
2019-02-19T09:00:22.429Z,993.94
2019-02-19T09:01:22.613Z,993.96
2019-02-19T09:02:22.785Z,994.00
2019-02-19T09:03:22.953Z,993.99
2019-02-19T09:04:23.126Z,994.01
2019-02-19T09:05:23.306Z,993.99
2019-02-19T09:06:23.466Z,993.95
2019-02-19T09:07:23.654Z,994.00
2019-02-19T09:08:23.826Z,993.95
2019-02-19T09:09:24.002Z,993.93
2019-02-19T09:10:24.178Z,993.97
2019-02-19T09:11:24.344Z,993.96
2019-02-19T09:12:24.517Z,994.04
2019-02-19T09:13:24.698Z,993.94
2019-02-19T09:14:24.876Z,993.97
2019-02-19T09:15:25.044Z,994.00
2019-02-19T09:16:25.229Z,994.00
2019-02-19T09:17:25.368Z,994.05
2019-02-19T09:18:25.540Z,994.09
2019-02-19T09:19:25.715Z,994.12
2019-02-19T09:20:25.899Z,994.16
2019-02-19T09:21:26.063Z,994.23
2019-02-19T09:22:26.239Z,994.24
2019-02-19T09:23:26.410Z,994.21
2019-02-19T09:24:26.611Z,994.20
2019-02-19T09:25:26.751Z,994.21
2019-02-19T09:26:26.960Z,994.20
2019-02-19T09:27:27.099Z,994.19
2019-02-19T09:28:27.279Z,994.23
2019-02-19T09:29:27.429Z,994.24
2019-02-19T09:30:27.610Z,994.22
2019-02-19T09:31:27.775Z,994.29
2019-02-19T09:32:27.946Z,994.23
2019-02-19T09:33:28.130Z,994.24
2019-02-19T09:34:28.287Z,994.27
2019-02-19T09:35:28.464Z,994.24
2019-02-19T09:37:28.804Z,994.19
2019-02-19T09:39:29.140Z,994.24
2019-02-19T09:40:29.317Z,994.29
2019-02-19T09:41:29.486Z,994.25
2019-02-19T09:42:29.659Z,994.28
2019-02-19T09:43:35.474Z,994.33
2019-02-19T09:44:30.002Z,994.33
2019-02-19T09:45:30.188Z,994.33
2019-02-19T09:46:30.355Z,994.35
2019-02-19T09:47:30.540Z,994.33
2019-02-19T09:48:30.712Z,994.36
2019-02-19T09:49:30.873Z,994.35
2019-02-19T09:50:31.054Z,994.38
2019-02-19T09:51:31.222Z,994.37
2019-02-19T09:52:31.421Z,994.39
2019-02-19T09:53:31.641Z,994.41
2019-02-19T09:54:31.760Z,994.40
2019-02-19T09:55:31.940Z,994.42
2019-02-19T09:56:32.076Z,994.39
2019-02-19T09:57:32.774Z,994.40
2019-02-19T09:58:32.412Z,994.38
2019-02-19T09:59:32.579Z,994.37
2019-02-19T10:00:32.769Z,994.34
2019-02-19T10:01:32.928Z,994.31
2019-02-19T10:02:33.100Z,994.33
2019-02-19T10:03:33.271Z,994.34
2019-02-19T10:04:33.449Z,994.39
2019-02-19T10:05:33.604Z,994.38
2019-02-19T10:06:33.797Z,994.36
2019-02-19T10:07:33.965Z,994.35
2019-02-19T10:08:34.127Z,994.37
2019-02-19T10:09:34.303Z,994.38
2019-02-19T10:10:34.466Z,994.30
2019-02-19T10:11:34.647Z,994.37
2019-02-19T10:12:34.813Z,994.39
2019-02-19T10:13:34.996Z,994.44
2019-02-19T10:14:35.153Z,994.45
2019-02-19T10:16:41.346Z,994.50
2019-02-19T10:17:35.659Z,994.47
2019-02-19T10:18:35.835Z,994.51
2019-02-19T10:19:36.009Z,994.46
2019-02-19T10:20:36.181Z,994.47
2019-02-19T10:21:36.353Z,994.45
2019-02-19T10:22:36.525Z,994.50
2019-02-19T10:23:36.682Z,994.47
2019-02-19T10:24:36.869Z,994.42
2019-02-19T10:25:38.048Z,994.44
2019-02-19T10:26:37.239Z,994.41
2019-02-19T10:27:37.957Z,994.40
2019-02-19T10:28:37.832Z,994.43
2019-02-19T10:29:38.406Z,994.44
2019-02-19T10:30:38.470Z,994.48
2019-02-19T10:31:38.672Z,994.55
2019-02-19T10:32:38.699Z,994.55
2019-02-19T10:33:38.936Z,994.57
2019-02-19T10:34:39.080Z,994.57
2019-02-19T10:35:39.282Z,994.61
2019-02-19T10:36:39.611Z,994.62
2019-02-19T10:37:39.692Z,994.64
2019-02-19T10:38:39.825Z,994.62
2019-02-19T10:39:40.111Z,994.65
2019-02-19T10:40:40.142Z,994.60
2019-02-19T10:41:41.034Z,994.62
2019-02-19T10:42:40.637Z,994.62
2019-02-19T10:43:40.550Z,994.61
2019-02-19T10:44:40.511Z,994.62
2019-02-19T10:45:41.216Z,994.64
2019-02-19T10:46:41.608Z,994.66
2019-02-19T10:47:41.427Z,994.65
2019-02-19T10:48:41.416Z,994.66
2019-02-19T10:49:41.716Z,994.66
2019-02-19T10:50:41.736Z,994.65
2019-02-19T10:51:42.069Z,994.67
2019-02-19T10:52:42.611Z,994.62
2019-02-19T10:53:42.443Z,994.62
2019-02-19T10:54:42.661Z,994.64
2019-02-19T10:55:42.644Z,994.63
2019-02-19T10:56:43.070Z,994.64
2019-02-19T10:57:43.165Z,994.68
2019-02-19T10:58:43.367Z,994.65
2019-02-19T10:59:43.312Z,994.67
2019-02-19T11:00:43.533Z,994.62
2019-02-19T11:01:43.726Z,994.63
2019-02-19T11:02:43.923Z,994.62
2019-02-19T11:03:44.142Z,994.64
2019-02-19T11:04:44.331Z,994.63
2019-02-19T11:05:44.511Z,994.64
2019-02-19T11:06:44.653Z,994.64
2019-02-19T11:07:44.945Z,994.63
2019-02-19T11:08:45.782Z,994.62
2019-02-19T11:09:45.126Z,994.61
2019-02-19T11:10:45.330Z,994.57
2019-02-19T11:11:45.643Z,994.59
2019-02-19T11:12:46.031Z,994.60
2019-02-19T11:13:46.067Z,994.59
2019-02-19T11:14:46.079Z,994.58
2019-02-19T11:15:46.235Z,994.62
2019-02-19T11:16:46.476Z,994.60
2019-02-19T11:17:46.559Z,994.58
2019-02-19T11:18:46.810Z,994.59
2019-02-19T11:19:47.018Z,994.57
2019-02-19T11:20:47.260Z,994.55
2019-02-19T11:21:47.385Z,994.52
2019-02-19T11:22:47.451Z,994.46
2019-02-19T11:23:47.741Z,994.47
2019-02-19T11:24:47.810Z,994.48
2019-02-19T11:25:47.984Z,994.43
2019-02-19T11:26:48.370Z,994.46
2019-02-19T11:27:48.312Z,994.45
2019-02-19T11:28:48.646Z,994.44
2019-02-19T11:29:48.702Z,994.44
2019-02-19T11:30:49.005Z,994.37
2019-02-19T11:31:49.272Z,994.39
2019-02-19T11:32:49.533Z,994.36
2019-02-19T11:33:49.510Z,994.36
2019-02-19T11:34:49.749Z,994.37
2019-02-19T11:35:50.047Z,994.37
2019-02-19T11:36:50.231Z,994.33
2019-02-19T11:37:50.403Z,994.34
2019-02-19T11:38:50.502Z,994.34
2019-02-19T11:39:50.757Z,994.36
2019-02-19T11:40:50.987Z,994.37
2019-02-19T11:41:51.014Z,994.39
2019-02-19T11:42:51.084Z,994.35
2019-02-19T11:43:51.352Z,994.40
2019-02-19T11:44:51.417Z,994.35
2019-02-19T11:45:51.610Z,994.31
2019-02-19T11:46:51.759Z,994.35
2019-02-19T11:47:51.927Z,994.30
2019-02-19T11:48:52.082Z,994.32
2019-02-19T11:49:52.360Z,994.27
2019-02-19T11:50:52.580Z,994.29
2019-02-19T11:51:52.748Z,994.23
2019-02-19T11:52:52.801Z,994.26
2019-02-19T11:53:52.986Z,994.21
2019-02-19T11:54:53.158Z,994.21
2019-02-19T11:55:53.338Z,994.19
2019-02-19T11:56:53.530Z,994.21
2019-02-19T11:57:53.693Z,994.14
2019-02-19T11:58:53.883Z,994.17
2019-02-19T11:59:54.425Z,994.15
2019-02-19T12:00:54.218Z,994.13
2019-02-19T12:01:54.555Z,994.19
2019-02-19T12:02:54.702Z,994.19
2019-02-19T12:03:54.835Z,994.12
2019-02-19T12:04:55.133Z,994.14
2019-02-19T12:05:55.119Z,994.16
2019-02-19T12:06:55.315Z,994.11
2019-02-19T12:07:55.480Z,994.08
2019-02-19T12:08:55.691Z,994.12
2019-02-19T12:09:55.890Z,994.14
2019-02-19T12:10:56.067Z,994.12
2019-02-19T12:11:56.330Z,994.17
2019-02-19T12:12:56.513Z,994.09
2019-02-19T12:13:56.699Z,994.12
2019-02-19T12:14:56.880Z,994.15
2019-02-19T12:15:57.006Z,994.09
2019-02-19T12:16:57.268Z,994.14
2019-02-19T12:17:57.433Z,994.11
2019-02-19T12:18:57.630Z,994.13
2019-02-19T12:19:57.813Z,994.07
2019-02-19T12:20:58.078Z,994.01
2019-02-19T12:21:58.171Z,994.02
2019-02-19T12:22:58.367Z,994.02
2019-02-19T12:23:58.558Z,994.05
2019-02-19T12:24:58.737Z,993.96
2019-02-19T12:25:58.971Z,994.01
2019-02-19T12:26:59.154Z,993.99
2019-02-19T12:27:59.341Z,994.00
2019-02-19T12:28:59.512Z,993.98
2019-02-19T12:29:59.696Z,994.03
2019-02-19T12:30:59.890Z,994.09
2019-02-19T12:32:00.266Z,993.97
2019-02-19T12:33:00.184Z,994.03
2019-02-19T12:34:00.351Z,994.04
2019-02-19T12:35:00.577Z,994.04